createdAt,value
2022-11-05T00:01:15.921Z,9.20
2022-11-05T00:04:07.760Z,7.00
2022-11-05T00:06:54.926Z,9.30
2022-11-05T00:09:29.332Z,6.90
2022-11-05T00:12:17.694Z,9.70
2022-11-05T00:15:04.649Z,10.30
2022-11-05T00:17:33.544Z,8.20
2022-11-05T00:20:02.851Z,10.40
2022-11-05T00:22:49.987Z,10.20
2022-11-05T00:25:19.530Z,9.90
2022-11-05T00:27:53.011Z,11.10
2022-11-05T00:30:25.126Z,9.60
2022-11-05T00:32:59.672Z,9.30
2022-11-05T00:35:28.602Z,8.40
2022-11-05T00:37:56.871Z,9.70
2022-11-05T00:40:28.750Z,8.70
2022-11-05T00:43:16.625Z,9.00
2022-11-05T00:45:48.679Z,9.50
2022-11-05T00:48:35.379Z,10.70
2022-11-05T00:51:03.878Z,10.30
2022-11-05T00:53:34.889Z,10.40
2022-11-05T00:56:04.000Z,8.90
2022-11-05T00:58:33.078Z,8.70
2022-11-05T01:01:02.974Z,10.20
2022-11-05T01:03:33.454Z,10.60
2022-11-05T01:06:09.775Z,10.40
2022-11-05T01:08:39.893Z,9.70
2022-11-05T01:11:11.689Z,9.30
2022-11-05T01:13:41.837Z,10.00
2022-11-05T01:16:10.780Z,10.70
2022-11-05T01:18:39.279Z,11.40
2022-11-05T01:21:16.646Z,10.10
2022-11-05T01:23:49.864Z,9.90
2022-11-05T01:26:18.619Z,9.40
2022-11-05T01:28:51.509Z,9.30
2022-11-05T01:31:20.878Z,10.20
2022-11-05T01:33:53.701Z,9.00
2022-11-05T01:36:22.217Z,8.80
2022-11-05T01:38:50.505Z,10.80
2022-11-05T01:41:18.761Z,8.70
2022-11-05T01:43:51.151Z,9.80
2022-11-05T01:46:23.647Z,9.60
2022-11-05T01:49:00.088Z,8.90
2022-11-05T01:51:32.244Z,8.80
2022-11-05T01:54:04.993Z,10.40
2022-11-05T01:56:36.753Z,9.40
2022-11-05T01:59:11.172Z,10.20
2022-11-05T02:01:40.887Z,10.40
2022-11-05T02:04:14.479Z,11.00
2022-11-05T02:06:45.761Z,10.50
2022-11-05T02:09:19.822Z,10.00
2022-11-05T02:11:50.898Z,8.70
2022-11-05T02:14:20.120Z,8.60
2022-11-05T02:16:58.805Z,8.10
2022-11-05T02:19:50.142Z,10.10
2022-11-05T02:22:49.995Z,10.50
2022-11-05T02:25:38.414Z,11.20
2022-11-05T02:30:50.351Z,10.20
2022-11-05T02:33:39.016Z,10.10
2022-11-05T02:36:28.123Z,11.10
2022-11-05T02:39:07.159Z,11.00
2022-11-05T02:41:43.312Z,9.90
2022-11-05T02:44:20.257Z,10.50
2022-11-05T02:46:57.880Z,10.30
2022-11-05T02:49:39.103Z,10.70
2022-11-05T02:52:19.768Z,11.80
2022-11-05T02:54:58.720Z,11.40
2022-11-05T02:57:29.601Z,11.70
2022-11-05T03:00:07.406Z,12.20
2022-11-05T03:02:37.892Z,11.70
2022-11-05T03:05:08.472Z,12.10
2022-11-05T03:07:44.963Z,10.50
2022-11-05T03:10:26.299Z,10.30
2022-11-05T03:13:07.984Z,9.30
2022-11-05T03:15:50.516Z,9.90
2022-11-05T03:18:26.276Z,10.10
2022-11-05T03:21:03.779Z,10.40
2022-11-05T03:23:40.324Z,11.00
2022-11-05T03:26:16.910Z,11.30
2022-11-05T03:28:50.330Z,10.80
2022-11-05T03:31:22.063Z,10.50
2022-11-05T03:33:55.465Z,10.80
2022-11-05T03:36:27.319Z,10.10
2022-11-05T03:38:59.085Z,9.30
2022-11-05T03:41:29.351Z,10.90
2022-11-05T03:44:09.942Z,10.70
2022-11-05T03:46:44.111Z,11.20
2022-11-05T03:49:17.417Z,10.30
2022-11-05T03:51:53.889Z,12.00
2022-11-05T03:54:23.428Z,11.50
2022-11-05T03:57:02.085Z,11.20
2022-11-05T04:02:02.371Z,9.60
2022-11-05T04:04:31.015Z,11.20
2022-11-05T04:07:17.916Z,11.50
2022-11-05T04:10:10.399Z,10.70
2022-11-05T04:12:59.630Z,10.10
2022-11-05T04:15:29.736Z,11.60
2022-11-05T04:17:58.490Z,10.40
2022-11-05T04:20:45.939Z,10.80
2022-11-05T04:23:32.663Z,10.70
2022-11-05T04:26:00.964Z,11.40
2022-11-05T04:28:53.531Z,11.90
2022-11-05T04:31:22.683Z,12.50
2022-11-05T04:33:52.652Z,10.90
2022-11-05T04:36:20.964Z,11.20
2022-11-05T04:38:52.239Z,11.60
2022-11-05T04:41:21.436Z,11.10
2022-11-05T04:43:53.051Z,12.90
2022-11-05T04:46:24.957Z,12.40
2022-11-05T04:48:59.770Z,13.20
2022-11-05T04:51:29.405Z,11.30
2022-11-05T04:53:58.012Z,12.00
2022-11-05T04:56:26.451Z,12.30
2022-11-05T04:58:55.378Z,11.40
2022-11-05T05:01:26.524Z,11.10
2022-11-05T05:03:55.387Z,10.60
2022-11-05T05:06:23.711Z,11.00
2022-11-05T05:08:52.353Z,11.60
2022-11-05T05:11:21.939Z,11.70
2022-11-05T05:13:51.919Z,13.60
2022-11-05T05:16:22.638Z,11.50
2022-11-05T05:18:52.835Z,12.20
2022-11-05T05:21:41.825Z,12.10
2022-11-05T05:24:13.181Z,12.50
2022-11-05T05:26:46.661Z,11.90
2022-11-05T05:29:18.724Z,12.10
2022-11-05T05:31:47.420Z,11.80
2022-11-05T05:34:16.944Z,10.40
2022-11-05T05:36:45.372Z,10.60
2022-11-05T05:39:14.067Z,12.30
2022-11-05T05:41:44.039Z,10.50
2022-11-05T05:44:12.792Z,13.10
2022-11-05T05:46:41.398Z,12.30
2022-11-05T05:49:12.503Z,12.50
2022-11-05T05:51:41.491Z,12.80
2022-11-05T05:54:12.343Z,11.80
2022-11-05T05:56:42.254Z,12.10
2022-11-05T05:59:11.374Z,12.50
2022-11-05T06:01:42.276Z,12.00
2022-11-05T06:04:11.679Z,12.10
2022-11-05T06:06:41.900Z,12.00
2022-11-05T06:09:10.526Z,12.40
2022-11-05T06:11:39.206Z,12.40
2022-11-05T06:14:11.068Z,10.80
2022-11-05T06:16:42.526Z,13.80
2022-11-05T06:19:12.778Z,12.70
2022-11-05T06:21:45.317Z,11.20
2022-11-05T06:24:14.316Z,13.00
2022-11-05T06:26:44.684Z,12.60
2022-11-05T06:29:17.181Z,12.50
2022-11-05T06:31:47.209Z,12.20
2022-11-05T06:34:18.775Z,13.00
2022-11-05T06:36:48.930Z,13.70
2022-11-05T06:39:17.660Z,11.80
2022-11-05T06:42:16.729Z,13.00
2022-11-05T06:44:37.883Z,12.80
2022-11-05T06:47:14.189Z,12.10
2022-11-05T06:49:45.436Z,12.70
2022-11-05T06:52:16.717Z,13.50
2022-11-05T06:54:45.822Z,13.40
2022-11-05T06:57:15.122Z,13.50
2022-11-05T06:59:44.413Z,12.00
2022-11-05T07:02:17.417Z,13.50
2022-11-05T07:04:46.645Z,12.80
2022-11-05T07:07:16.480Z,13.00
2022-11-05T07:09:45.052Z,12.10
2022-11-05T07:12:14.030Z,11.70
2022-11-05T07:14:42.487Z,12.20
2022-11-05T07:17:11.274Z,13.10
2022-11-05T07:19:40.081Z,13.30
2022-11-05T07:22:08.499Z,13.20
2022-11-05T07:24:36.939Z,11.50
2022-11-05T07:27:09.054Z,14.20
2022-11-05T07:29:37.778Z,14.60
2022-11-05T07:32:06.937Z,14.10
2022-11-05T07:34:35.754Z,13.40
2022-11-05T07:37:04.222Z,12.90
2022-11-05T07:39:32.983Z,12.60
2022-11-05T07:42:01.315Z,13.80
2022-11-05T07:44:33.849Z,12.90
2022-11-05T07:47:02.085Z,13.00
2022-11-05T07:49:30.596Z,14.60
2022-11-05T07:51:59.301Z,12.70
2022-11-05T07:54:30.392Z,14.20
2022-11-05T07:57:00.866Z,14.20
2022-11-05T07:59:29.724Z,12.80
2022-11-05T08:01:58.949Z,14.00
2022-11-05T08:04:28.504Z,13.70
2022-11-05T08:06:56.976Z,12.60
2022-11-05T08:09:25.481Z,13.00
2022-11-05T08:11:57.366Z,13.30
2022-11-05T08:14:28.402Z,14.30
2022-11-05T08:16:58.974Z,14.20
2022-11-05T08:19:27.481Z,15.00
2022-11-05T08:21:58.641Z,14.40
2022-11-05T08:24:27.404Z,13.80
2022-11-05T08:26:55.749Z,13.90
2022-11-05T08:29:24.370Z,14.20
2022-11-05T08:31:53.082Z,14.60
2022-11-05T08:34:21.453Z,13.60
2022-11-05T08:36:52.756Z,14.10
2022-11-05T08:39:21.208Z,14.90
2022-11-05T08:41:50.195Z,14.40
2022-11-05T08:44:18.528Z,14.50
2022-11-05T08:46:46.988Z,14.90
2022-11-05T08:49:16.167Z,14.90
2022-11-05T08:51:44.720Z,13.70
2022-11-05T08:54:13.699Z,14.00
2022-11-05T08:56:41.977Z,15.10
2022-11-05T08:59:10.494Z,15.50
2022-11-05T09:01:39.004Z,14.90
2022-11-05T09:04:07.942Z,14.90
2022-11-05T09:06:37.066Z,15.40
2022-11-05T09:09:05.338Z,14.80
2022-11-05T09:12:05.259Z,16.70
2022-11-05T09:14:21.984Z,15.60
2022-11-05T09:16:50.915Z,14.70
2022-11-05T09:19:19.348Z,15.30
2022-11-05T09:21:49.029Z,16.40
2022-11-05T09:24:20.175Z,14.50
2022-11-05T09:26:52.257Z,16.30
2022-11-05T09:29:20.913Z,15.40
2022-11-05T09:31:55.023Z,16.10
2022-11-05T09:34:25.871Z,15.20
2022-11-05T09:36:58.531Z,15.20
2022-11-05T09:39:27.324Z,16.40
2022-11-05T09:42:02.149Z,15.40
2022-11-05T09:44:37.583Z,17.40
2022-11-05T09:47:13.261Z,16.00
2022-11-05T09:49:47.674Z,16.70
2022-11-05T09:52:21.425Z,16.70
2022-11-05T09:54:50.984Z,17.00
2022-11-05T09:57:25.527Z,16.10
2022-11-05T09:59:56.646Z,13.50
2022-11-05T10:02:28.182Z,15.60
2022-11-05T10:05:03.577Z,16.70
2022-11-05T10:07:42.685Z,17.20
2022-11-05T10:10:25.811Z,16.20
2022-11-05T10:12:58.490Z,17.10
2022-11-05T10:15:30.563Z,17.40
2022-11-05T10:18:03.149Z,18.00
2022-11-05T10:20:34.489Z,17.60
2022-11-05T10:23:11.059Z,19.40
2022-11-05T10:25:44.047Z,18.60
2022-11-05T10:28:16.826Z,18.90
2022-11-05T10:30:46.561Z,18.80
2022-11-05T10:33:28.327Z,17.70
2022-11-05T10:36:02.794Z,19.10
2022-11-05T10:38:31.287Z,18.50
2022-11-05T10:41:18.385Z,17.00
2022-11-05T10:43:50.934Z,17.50
2022-11-05T10:46:38.054Z,18.60
2022-11-05T10:49:22.244Z,16.70
2022-11-05T10:51:56.517Z,17.20
2022-11-05T10:54:33.397Z,17.70
2022-11-05T10:57:21.645Z,17.40
2022-11-05T11:00:02.258Z,17.90
2022-11-05T11:02:30.678Z,18.10
2022-11-05T11:04:59.375Z,17.80
2022-11-05T11:07:27.756Z,17.40
2022-11-05T11:09:56.099Z,18.20
2022-11-05T11:12:28.709Z,16.80
2022-11-05T11:15:12.864Z,17.10
2022-11-05T11:17:41.266Z,18.00
2022-11-05T11:20:23.769Z,16.90
2022-11-05T11:23:04.979Z,16.70
2022-11-05T11:25:44.873Z,18.30
2022-11-05T11:28:19.602Z,17.50
2022-11-05T11:30:52.761Z,18.20
2022-11-05T11:33:25.585Z,18.90
2022-11-05T11:35:54.631Z,17.50
2022-11-05T11:38:24.353Z,17.40
2022-11-05T11:41:01.921Z,17.90
2022-11-05T11:43:34.245Z,16.80
2022-11-05T11:46:08.798Z,18.80
2022-11-05T11:48:41.221Z,18.10
2022-11-05T11:51:29.785Z,18.10
2022-11-05T11:53:59.532Z,17.90
2022-11-05T11:56:32.014Z,18.20
2022-11-05T11:59:11.559Z,17.70
2022-11-05T12:02:06.883Z,19.00
2022-11-05T12:04:53.969Z,17.30
2022-11-05T12:07:36.386Z,17.80
2022-11-05T12:10:27.496Z,16.60
2022-11-05T12:13:14.461Z,16.50
2022-11-05T12:15:49.566Z,17.00
2022-11-05T12:18:25.517Z,16.60
2022-11-05T12:21:07.385Z,18.30
2022-11-05T12:23:53.200Z,18.20
2022-11-05T12:26:38.672Z,17.00
2022-11-05T12:29:32.867Z,18.70
2022-11-05T12:32:37.233Z,18.10
2022-11-05T12:35:18.068Z,17.80
2022-11-05T12:37:55.345Z,15.50
2022-11-05T12:40:43.699Z,17.10
2022-11-05T12:43:19.751Z,17.00
2022-11-05T12:45:57.134Z,19.40
2022-11-05T12:48:51.915Z,19.00
2022-11-05T12:51:37.395Z,21.20
2022-11-05T12:54:20.736Z,21.10
2022-11-05T12:56:53.102Z,19.00
2022-11-05T12:59:28.434Z,20.30
2022-11-05T13:02:02.127Z,18.10
2022-11-05T13:04:37.687Z,17.00
2022-11-05T13:07:10.889Z,18.90
2022-11-05T13:09:45.111Z,19.10
2022-11-05T13:12:16.699Z,20.50
2022-11-05T13:14:50.779Z,20.70
2022-11-05T13:17:22.141Z,22.10
2022-11-05T13:20:21.095Z,21.20
2022-11-05T13:23:01.478Z,19.80
2022-11-05T13:25:42.598Z,19.10
2022-11-05T13:28:20.333Z,18.60
2022-11-05T13:30:56.215Z,20.80
2022-11-05T13:33:36.072Z,21.10
2022-11-05T13:36:32.711Z,20.90
2022-11-05T13:39:12.858Z,21.00
2022-11-05T13:42:02.026Z,20.90
2022-11-05T13:44:57.534Z,21.10
2022-11-05T13:47:51.322Z,21.60
2022-11-05T13:50:43.041Z,21.80
2022-11-05T13:53:42.788Z,23.40
2022-11-05T13:56:29.078Z,21.50
2022-11-05T13:59:17.116Z,20.10
2022-11-05T14:01:55.100Z,19.80
2022-11-05T14:04:33.402Z,22.30
2022-11-05T14:07:17.697Z,20.20
2022-11-05T14:09:54.953Z,19.20
2022-11-05T14:12:30.711Z,21.70
2022-11-05T14:15:10.620Z,22.40
2022-11-05T14:20:58.308Z,26.80
2022-11-05T14:23:54.594Z,24.50
2022-11-05T14:26:33.397Z,24.10
2022-11-05T14:29:39.750Z,23.40
2022-11-05T14:32:28.850Z,25.10
2022-11-05T14:35:05.242Z,24.70
2022-11-05T14:37:41.458Z,24.10
2022-11-05T14:40:36.438Z,24.10
2022-11-05T14:43:19.063Z,21.90
2022-11-05T14:46:00.761Z,23.20
2022-11-05T14:48:41.234Z,20.80
2022-11-05T14:51:47.084Z,20.50
2022-11-05T14:54:26.691Z,22.70
2022-11-05T14:57:00.562Z,20.60
2022-11-05T14:59:52.353Z,22.20
2022-11-05T15:02:29.065Z,23.20
2022-11-05T15:05:33.641Z,23.20
2022-11-05T15:08:32.029Z,23.00
2022-11-05T15:11:23.165Z,25.40
2022-11-05T15:14:05.648Z,22.50
2022-11-05T15:16:43.753Z,22.80
2022-11-05T15:19:30.061Z,24.40
2022-11-05T15:22:05.704Z,25.20
2022-11-05T15:24:38.334Z,27.40
2022-11-05T15:27:22.230Z,28.80
2022-11-05T15:29:54.724Z,26.90
2022-11-05T15:32:28.326Z,26.30
2022-11-05T15:35:00.218Z,25.70
2022-11-05T15:37:31.950Z,28.40
2022-11-05T15:40:04.009Z,26.30
2022-11-05T15:42:35.860Z,26.40
2022-11-05T15:45:21.870Z,27.10
2022-11-05T15:47:54.156Z,25.90
2022-11-05T15:50:29.068Z,22.30
2022-11-05T15:53:20.596Z,23.30
2022-11-05T15:56:00.968Z,24.30
2022-11-05T15:58:34.974Z,25.10
2022-11-05T16:01:08.133Z,25.20
2022-11-05T16:03:41.758Z,24.10
2022-11-05T16:06:14.439Z,23.50
2022-11-05T16:08:51.696Z,24.00
2022-11-05T16:11:28.796Z,22.80
2022-11-05T16:14:16.411Z,23.00
2022-11-05T16:16:49.835Z,25.20
2022-11-05T16:19:45.062Z,24.70
2022-11-05T16:22:19.003Z,23.30
2022-11-05T16:24:52.952Z,23.10
2022-11-05T16:27:25.261Z,25.50
2022-11-05T16:29:58.651Z,24.70
2022-11-05T16:32:32.350Z,23.50
2022-11-05T16:35:08.621Z,23.10
2022-11-05T16:37:49.145Z,24.30
2022-11-05T16:40:26.666Z,24.80
2022-11-05T16:43:17.723Z,23.70
2022-11-05T16:45:54.308Z,25.20
2022-11-05T16:48:27.441Z,22.90
2022-11-05T16:51:01.428Z,22.30
2022-11-05T16:53:33.817Z,24.70
2022-11-05T16:56:07.580Z,20.90
2022-11-05T16:58:39.644Z,19.80
2022-11-05T17:01:18.581Z,19.50
2022-11-05T17:03:55.637Z,24.20
2022-11-05T17:06:31.249Z,23.40
2022-11-05T17:09:04.096Z,24.30
2022-11-05T17:11:36.415Z,24.40
2022-11-05T17:14:09.270Z,24.10
2022-11-05T17:16:42.157Z,24.80
2022-11-05T17:19:17.031Z,22.60
2022-11-05T17:21:52.056Z,23.70
2022-11-05T17:24:24.296Z,21.80
2022-11-05T17:26:56.662Z,21.00
2022-11-05T17:29:28.673Z,14.70
2022-11-05T17:32:01.432Z,16.80
2022-11-05T17:34:33.271Z,14.60
2022-11-05T17:37:05.456Z,17.60
2022-11-05T17:39:37.355Z,18.20
2022-11-05T17:42:09.275Z,17.40
2022-11-05T17:44:41.013Z,18.30
2022-11-05T17:47:13.246Z,20.70
2022-11-05T17:49:45.116Z,19.10
2022-11-05T17:52:20.912Z,20.70
2022-11-05T17:54:52.957Z,18.50
2022-11-05T17:57:25.327Z,16.10
2022-11-05T17:59:57.207Z,16.50
2022-11-05T18:02:29.971Z,13.30
2022-11-05T18:05:04.292Z,15.90
2022-11-05T18:07:36.982Z,17.90
2022-11-05T18:10:10.949Z,16.60
2022-11-05T18:12:44.286Z,16.70
2022-11-05T18:15:17.427Z,16.60
2022-11-05T18:17:53.070Z,16.40
2022-11-05T18:20:24.969Z,13.20
2022-11-05T18:22:58.369Z,12.60
2022-11-05T18:25:30.136Z,12.40
2022-11-05T18:28:03.141Z,9.90
2022-11-05T18:30:34.948Z,9.70
2022-11-05T18:33:07.961Z,7.50
2022-11-05T18:35:44.913Z,8.80
2022-11-05T18:38:17.133Z,6.10
2022-11-05T18:40:51.553Z,5.00
2022-11-05T18:43:23.544Z,6.00
2022-11-05T18:45:58.654Z,3.70
2022-11-05T18:48:30.923Z,5.20
2022-11-05T18:51:07.535Z,6.00
2022-11-05T18:53:39.954Z,6.40
2022-11-05T18:56:13.178Z,5.70
2022-11-05T18:58:46.057Z,5.50
2022-11-05T19:01:19.629Z,5.60
2022-11-05T19:03:54.697Z,5.00
2022-11-05T19:06:26.991Z,4.50
2022-11-05T19:08:59.283Z,6.30
2022-11-05T19:11:31.514Z,5.40
2022-11-05T19:14:03.605Z,4.10
2022-11-05T19:16:36.796Z,4.80
2022-11-05T19:19:08.927Z,5.30
2022-11-05T19:21:40.720Z,5.00
2022-11-05T19:24:17.049Z,5.70
2022-11-05T19:26:51.615Z,3.40
2022-11-05T19:29:24.261Z,5.10
2022-11-05T19:31:56.171Z,3.90
2022-11-05T19:34:30.075Z,6.40
2022-11-05T19:37:07.285Z,4.80
2022-11-05T19:39:40.679Z,6.50
2022-11-05T19:42:12.693Z,6.60
2022-11-05T19:44:45.328Z,5.80
2022-11-05T19:47:17.717Z,4.30
2022-11-05T19:49:50.987Z,4.10
2022-11-05T19:52:22.822Z,5.60
2022-11-05T19:54:55.090Z,5.60
2022-11-05T19:57:29.756Z,7.50
2022-11-05T20:00:02.001Z,7.40
2022-11-05T20:02:49.011Z,7.60
2022-11-05T20:05:21.440Z,7.10
2022-11-05T20:07:56.681Z,7.60
2022-11-05T20:10:28.893Z,8.10
2022-11-05T20:13:02.370Z,8.20
2022-11-05T20:15:37.880Z,7.00
2022-11-05T20:18:10.033Z,7.00
2022-11-05T20:20:42.840Z,7.40
2022-11-05T20:23:20.540Z,7.20
2022-11-05T20:25:54.721Z,7.60
2022-11-05T20:28:26.771Z,8.60
2022-11-05T20:31:09.010Z,9.40
2022-11-05T20:33:41.700Z,9.40
2022-11-05T20:36:17.184Z,9.60
2022-11-05T20:38:55.388Z,8.40
2022-11-05T20:41:28.046Z,7.80
2022-11-05T20:44:00.533Z,8.50
2022-11-05T20:46:35.416Z,8.00
2022-11-05T20:49:07.281Z,8.00
2022-11-05T20:51:39.592Z,8.40
2022-11-05T20:54:11.973Z,8.00
2022-11-05T20:56:44.656Z,8.20
2022-11-05T20:59:16.602Z,8.30
2022-11-05T21:01:52.704Z,8.20
2022-11-05T21:04:24.776Z,8.30
2022-11-05T21:06:56.754Z,8.20
2022-11-05T21:09:28.480Z,11.00
2022-11-05T21:12:14.826Z,8.60
2022-11-05T21:14:47.790Z,8.00
2022-11-05T21:17:21.450Z,7.20
2022-11-05T21:19:54.646Z,7.20
2022-11-05T21:22:26.660Z,7.70
2022-11-05T21:24:58.535Z,7.50
2022-11-05T21:27:30.510Z,7.60
2022-11-05T21:30:02.416Z,8.20
2022-11-05T21:32:35.062Z,10.00
2022-11-05T21:35:07.949Z,8.50
2022-11-05T21:37:40.165Z,7.40
2022-11-05T21:40:14.418Z,8.20
2022-11-05T21:42:46.462Z,6.90
2022-11-05T21:45:18.421Z,7.70
2022-11-05T21:47:52.779Z,7.50
2022-11-05T21:50:45.434Z,8.00
2022-11-05T21:53:36.440Z,8.70
2022-11-05T21:56:34.536Z,7.40
2022-11-05T21:59:24.658Z,6.90
2022-11-05T22:02:02.880Z,7.40
2022-11-05T22:04:37.165Z,8.50
2022-11-05T22:07:10.470Z,8.00
2022-11-05T22:09:42.558Z,8.60
2022-11-05T22:12:15.097Z,8.80
2022-11-05T22:14:47.312Z,10.30
2022-11-05T22:17:21.261Z,9.60
2022-11-05T22:19:56.260Z,9.10
2022-11-05T22:22:28.665Z,11.10
2022-11-05T22:25:02.172Z,12.80
2022-11-05T22:27:34.073Z,13.00
2022-11-05T22:30:09.427Z,12.00
2022-11-05T22:32:41.501Z,14.70
2022-11-05T22:35:13.730Z,12.90
2022-11-05T22:37:46.487Z,16.70
2022-11-05T22:40:23.839Z,11.30
2022-11-05T22:42:56.444Z,13.20
2022-11-05T22:45:37.304Z,10.10
2022-11-05T22:48:09.960Z,13.50
2022-11-05T22:50:42.538Z,14.70
2022-11-05T22:53:14.352Z,18.40
2022-11-05T22:55:51.037Z,13.30
2022-11-05T22:58:22.835Z,9.80
2022-11-05T23:00:55.363Z,11.80
2022-11-05T23:03:31.500Z,12.10
2022-11-05T23:06:30.922Z,10.00
2022-11-05T23:09:21.702Z,13.30
2022-11-05T23:11:57.523Z,13.30
2022-11-05T23:14:33.437Z,9.90
2022-11-05T23:17:23.236Z,11.20
2022-11-05T23:20:12.818Z,10.20
2022-11-05T23:23:04.855Z,7.10
2022-11-05T23:25:37.202Z,9.70
2022-11-05T23:28:11.344Z,10.00
2022-11-05T23:31:00.247Z,13.40
2022-11-05T23:33:36.076Z,15.60
2022-11-05T23:36:30.696Z,15.10
2022-11-05T23:39:06.166Z,11.60
2022-11-05T23:41:56.904Z,8.80
2022-11-05T23:44:49.037Z,7.70
2022-11-05T23:47:46.779Z,8.10
2022-11-05T23:50:21.335Z,6.50
2022-11-05T23:52:58.549Z,7.90
2022-11-05T23:55:31.300Z,7.10
2022-11-05T23:58:03.391Z,7.80
